Rosedale, MS

9:32 AM CDT on September 02, 2015 (GMT -0500)
Cleveland Municipal | | Change Station
CLOSE
Current Station
Airport
Location: Cleveland Municipal Airport,
Elevation: 138 ft
Nearby Weather Stations

Elev 138 ft 33.76 °N, 90.76 °W | Updated 17 minutes ago

Rain
Rain
77 °F
Feels Like 77 °F
N
4
Wind Variable Wind from East

Today
High -- | Low -- °F
--% Chance of Precip.
Yesterday
High -- | Low -- °F
Precip. -- in
6:38 AM 7:28 PM
Waning Gibbous, 80% visible
Pressure 30.08 in
Visibility 10.0 miles
Clouds Clear
Dew Point 74 °F
Humidity 90%
Rainfall 0.00 in
Snow Depth Not available.
UV 3 out of 12
Pollen 10.00 out of 12
Air Quality Not available.
Flu Activity Not available.
METAR KRNV 021415Z AUTO 09003KT 10SM CLR 25/23 A3008 RMK AO2 T02520234
Pressure 30.08 in
Visibility 10.0 miles
Clouds Clear
Dew Point 74 °F
Humidity 90%
Rainfall 0.00 in
Snow Depth Not available.
UV 3 out of 12
Pollen 10.00 out of 12
Air Quality Not available.
Flu Activity Not available.
METAR KRNV 021415Z AUTO 09003KT 10SM CLR 25/23 A3008 RMK AO2 T02520234

10-Day Weather Forecast

×

Almanac

Astronomy

Sep. 02, 2015 Rise Set
Actual Time
Civil Twilight
Nautical Twilight
Astronomical Twilight
Moon
Length of Visible Light
Length of Day
Tomorrow will be .
, % of the Moon is Illuminated

Today's Extremes

State Highs State Lows

Community

WunderPhotos

Upload Photos

1,851,763 photos uploaded!

WunderBlogs® & News

Nearby

Air Quality

  Air Quality AQ Index Pollutant
Not available.

Snow Depth

Station Depth Elevation

Earthquake Activity

City Distance Mag. Time & Date
Minimum magnitude displayed is 2.5.

Coastal Water Temperatures

Place Temperature

Stations

Nearby Weather Stations

Station Location Temp. Windchill Dew Point Humidity Wind Precip. Elev Updated Type